AVA9302 SKBO-SKRG
Flight info
| Callsign | AVA9302 |
|---|---|
| Flight time | 0h 23m |
| Altitude | 24000 |
| Route | TOBKI4R VASIL W36 NIRSO NIRSO3C |
| Aircraft | A320/M-SDE3FGHIRWY/LB1 |
Departure
| Time | 2026-04-24 15:58 |
|---|---|
| Airport | El Dorado International Airport (SKBO) |
Arrival
| Time | 2026-04-24 16:22 |
|---|---|
| Airport | Jose Maria Córdova International Airport (SKRG) |
| Time | Latitude | Longitude | Altitude | Speed | Heading |
|---|---|---|---|---|---|
| 2026-04-24 15:49 | 4.69798 | -74.14689 | 8385 ft | 2 kts | 217° |
| 2026-04-24 15:49 | 4.69811 | -74.14679 | 8361 ft | 2 kts | 242° |
| 2026-04-24 15:50 | 4.69813 | -74.14663 | 8366 ft | 2 kts | 304° |
| 2026-04-24 15:50 | 4.69803 | -74.14650 | 8366 ft | 0 kts | 308° |
| 2026-04-24 15:51 | 4.69803 | -74.14651 | 8366 ft | 1 kts | 308° |
| 2026-04-24 15:51 | 4.69821 | -74.14673 | 8366 ft | 6 kts | 308° |
| 2026-04-24 15:52 | 4.69851 | -74.14714 | 8366 ft | 8 kts | 304° |
| 2026-04-24 15:52 | 4.69903 | -74.14788 | 8366 ft | 18 kts | 307° |
| 2026-04-24 15:52 | 4.69929 | -74.14875 | 8366 ft | 12 kts | 236° |
| 2026-04-24 15:52 | 4.69863 | -74.14933 | 8366 ft | 13 kts | 228° |
| 2026-04-24 15:53 | 4.69880 | -74.15009 | 8366 ft | 12 kts | 306° |
| 2026-04-24 15:53 | 4.69935 | -74.15083 | 8366 ft | 15 kts | 307° |
| 2026-04-24 15:53 | 4.70000 | -74.15168 | 8366 ft | 16 kts | 307° |
| 2026-04-24 15:53 | 4.70072 | -74.15263 | 8366 ft | 18 kts | 307° |
| 2026-04-24 15:54 | 4.70149 | -74.15364 | 8365 ft | 19 kts | 307° |
| 2026-04-24 15:54 | 4.70230 | -74.15469 | 8365 ft | 19 kts | 307° |
| 2026-04-24 15:54 | 4.70312 | -74.15577 | 8365 ft | 20 kts | 307° |
| 2026-04-24 15:54 | 4.70399 | -74.15690 | 8365 ft | 21 kts | 308° |
| 2026-04-24 15:55 | 4.70487 | -74.15807 | 8366 ft | 21 kts | 307° |
| 2026-04-24 15:55 | 4.70577 | -74.15927 | 8366 ft | 22 kts | 307° |
| 2026-04-24 15:55 | 4.70669 | -74.16048 | 8366 ft | 22 kts | 307° |
| 2026-04-24 15:55 | 4.70771 | -74.16186 | 8366 ft | 27 kts | 307° |
| 2026-04-24 15:56 | 4.70888 | -74.16341 | 8366 ft | 28 kts | 307° |
| 2026-04-24 15:56 | 4.71008 | -74.16498 | 8366 ft | 28 kts | 307° |
| 2026-04-24 15:56 | 4.71125 | -74.16653 | 8366 ft | 27 kts | 307° |
| 2026-04-24 15:56 | 4.71199 | -74.16763 | 8366 ft | 14 kts | 278° |
| 2026-04-24 15:57 | 4.71143 | -74.16838 | 8364 ft | 15 kts | 217° |
| 2026-04-24 15:57 | 4.71046 | -74.16884 | 8363 ft | 16 kts | 171° |
| 2026-04-24 15:57 | 4.70967 | -74.16806 | 8363 ft | 18 kts | 127° |
| 2026-04-24 15:57 | 4.70794 | -74.16578 | 8364 ft | 75 kts | 127° |
| 2026-04-24 15:58 | 4.70343 | -74.15981 | 8365 ft | 137 kts | 127° |
| 2026-04-24 15:58 | 4.69663 | -74.15083 | 8366 ft | 185 kts | 127° |
| 2026-04-24 15:58 | 4.68856 | -74.14005 | 8923 ft | 195 kts | 127° |
| 2026-04-24 15:58 | 4.67909 | -74.12994 | 9601 ft | 203 kts | 148° |
| 2026-04-24 15:59 | 4.66556 | -74.12687 | 10035 ft | 209 kts | 194° |
| 2026-04-24 15:59 | 4.65329 | -74.13512 | 10305 ft | 223 kts | 235° |
| 2026-04-24 15:59 | 4.64568 | -74.14879 | 10621 ft | 235 kts | 244° |
| 2026-04-24 15:59 | 4.63839 | -74.16397 | 11046 ft | 246 kts | 244° |
| 2026-04-24 16:00 | 4.63063 | -74.17932 | 11738 ft | 248 kts | 242° |
| 2026-04-24 16:00 | 4.62235 | -74.19451 | 12448 ft | 250 kts | 240° |
| 2026-04-24 16:00 | 4.61482 | -74.21025 | 13122 ft | 253 kts | 255° |
| 2026-04-24 16:00 | 4.61117 | -74.22826 | 13404 ft | 275 kts | 259° |
| 2026-04-24 16:01 | 4.60757 | -74.24787 | 13599 ft | 298 kts | 259° |
| 2026-04-24 16:01 | 4.60368 | -74.26917 | 13765 ft | 322 kts | 261° |
| 2026-04-24 16:01 | 4.60099 | -74.29226 | 13895 ft | 345 kts | 264° |
| 2026-04-24 16:01 | 4.59930 | -74.31705 | 14002 ft | 367 kts | 266° |
| 2026-04-24 16:02 | 4.59815 | -74.34292 | 14100 ft | 387 kts | 267° |
| 2026-04-24 16:02 | 4.59714 | -74.37049 | 14192 ft | 405 kts | 268° |
| 2026-04-24 16:02 | 4.59760 | -74.39916 | 14306 ft | 419 kts | 279° |
| 2026-04-24 16:02 | 4.60681 | -74.42705 | 14632 ft | 425 kts | 295° |
| 2026-04-24 16:03 | 4.62216 | -74.45247 | 15041 ft | 429 kts | 306° |
| 2026-04-24 16:03 | 4.64115 | -74.47567 | 15483 ft | 432 kts | 311° |
| 2026-04-24 16:03 | 4.66172 | -74.49770 | 15912 ft | 434 kts | 313° |
| 2026-04-24 16:03 | 4.68258 | -74.51975 | 16387 ft | 437 kts | 312° |
| 2026-04-24 16:04 | 4.70273 | -74.54213 | 16827 ft | 440 kts | 310° |
| 2026-04-24 16:04 | 4.72249 | -74.56559 | 17251 ft | 442 kts | 308° |
| 2026-04-24 16:04 | 4.74192 | -74.58962 | 17670 ft | 445 kts | 310° |
| 2026-04-24 16:04 | 4.76392 | -74.61153 | 18079 ft | 448 kts | 319° |
| 2026-04-24 16:05 | 4.81357 | -74.64987 | 18802 ft | 453 kts | 322° |
| 2026-04-24 16:05 | 4.83903 | -74.66869 | 19139 ft | 455 kts | 323° |
| 2026-04-24 16:06 | 4.88959 | -74.70665 | 19798 ft | 459 kts | 322° |
| 2026-04-24 16:06 | 4.91491 | -74.72696 | 20125 ft | 460 kts | 317° |
| 2026-04-24 16:06 | 4.95483 | -74.77652 | 20737 ft | 463 kts | 300° |
| 2026-04-24 16:07 | 4.96946 | -74.80530 | 21011 ft | 465 kts | 295° |
| 2026-04-24 16:07 | 4.98365 | -74.83452 | 21298 ft | 467 kts | 296° |
| 2026-04-24 16:07 | 5.01242 | -74.89321 | 21823 ft | 470 kts | 296° |
| 2026-04-24 16:08 | 5.02687 | -74.92270 | 22068 ft | 472 kts | 296° |
| 2026-04-24 16:08 | 5.05580 | -74.98211 | 22552 ft | 476 kts | 296° |
| 2026-04-24 16:09 | 5.08468 | -75.04157 | 23012 ft | 479 kts | 296° |
| 2026-04-24 16:09 | 5.09929 | -75.07163 | 23255 ft | 481 kts | 296° |
| 2026-04-24 16:09 | 5.11397 | -75.10181 | 23482 ft | 483 kts | 296° |
| 2026-04-24 16:09 | 5.12872 | -75.13213 | 23709 ft | 484 kts | 296° |
| 2026-04-24 16:10 | 5.18246 | -75.21791 | 24211 ft | 488 kts | 311° |
| 2026-04-24 16:11 | 5.22719 | -75.26845 | 24229 ft | 488 kts | 311° |
| 2026-04-24 16:11 | 5.24970 | -75.29394 | 24225 ft | 488 kts | 311° |
| 2026-04-24 16:11 | 5.27223 | -75.31941 | 24220 ft | 487 kts | 311° |
| 2026-04-24 16:12 | 5.31900 | -75.36713 | 22167 ft | 471 kts | 323° |
| 2026-04-24 16:12 | 5.34673 | -75.38404 | 20751 ft | 464 kts | 334° |
| 2026-04-24 16:12 | 5.40585 | -75.40107 | 19050 ft | 432 kts | 352° |
| 2026-04-24 16:13 | 5.43560 | -75.40325 | 18219 ft | 430 kts | 355° |
| 2026-04-24 16:13 | 5.49600 | -75.40677 | 16185 ft | 439 kts | 356° |
| 2026-04-24 16:14 | 5.55650 | -75.41003 | 14941 ft | 427 kts | 356° |
| 2026-04-24 16:14 | 5.58554 | -75.41157 | 14828 ft | 409 kts | 356° |
| 2026-04-24 16:14 | 5.64017 | -75.41451 | 14586 ft | 373 kts | 356° |
| 2026-04-24 16:15 | 5.65692 | -75.41542 | 14511 ft | 356 kts | 356° |
| 2026-04-24 16:15 | 5.71014 | -75.41838 | 14240 ft | 307 kts | 355° |
| 2026-04-24 16:16 | 5.75083 | -75.42070 | 13898 ft | 281 kts | 356° |
| 2026-04-24 16:16 | 5.77022 | -75.42177 | 13759 ft | 278 kts | 355° |
| 2026-04-24 16:17 | 5.82950 | -75.42118 | 12305 ft | 286 kts | 1° |
| 2026-04-24 16:17 | 5.86827 | -75.42094 | 11583 ft | 270 kts | 357° |
| 2026-04-24 16:18 | 5.90542 | -75.42146 | 11438 ft | 266 kts | 358° |
| 2026-04-24 16:18 | 5.94250 | -75.42168 | 10848 ft | 268 kts | 358° |
| 2026-04-24 16:18 | 5.96099 | -75.42180 | 10541 ft | 269 kts | 359° |
| 2026-04-24 16:19 | 5.99865 | -75.42204 | 9901 ft | 270 kts | 358° |
| 2026-04-24 16:19 | 6.01739 | -75.42216 | 9552 ft | 266 kts | 358° |
| 2026-04-24 16:20 | 6.05180 | -75.42237 | 8946 ft | 232 kts | 358° |
| 2026-04-24 16:20 | 6.08150 | -75.42257 | 8448 ft | 193 kts | 358° |
| 2026-04-24 16:20 | 6.09447 | -75.42266 | 8194 ft | 180 kts | 359° |
| 2026-04-24 16:21 | 6.11793 | -75.42281 | 7725 ft | 162 kts | 358° |
| 2026-04-24 16:21 | 6.12913 | -75.42289 | 7481 ft | 160 kts | 359° |
| 2026-04-24 16:21 | 6.14017 | -75.42296 | 7217 ft | 158 kts | 359° |
| 2026-04-24 16:22 | 6.15097 | -75.42303 | 6994 ft | 157 kts | 360° |
| 2026-04-24 16:22 | 6.16417 | -75.42313 | 6991 ft | 43 kts | 359° |
| 2026-04-24 16:22 | 6.16690 | -75.42314 | 7002 ft | 36 kts | 0° |
| 2026-04-24 16:23 | 6.16859 | -75.42332 | 7016 ft | 14 kts | 302° |
| 2026-04-24 16:23 | 6.16868 | -75.42426 | 7015 ft | 14 kts | 270° |
| 2026-04-24 16:23 | 6.16903 | -75.42505 | 7018 ft | 13 kts | 329° |
| 2026-04-24 16:24 | 6.17046 | -75.42608 | 7017 ft | 14 kts | 294° |
| 2026-04-24 16:24 | 6.17064 | -75.42678 | 7016 ft | 6 kts | 289° |
| 2026-04-24 16:24 | 6.17070 | -75.42693 | 7018 ft | 0 kts | 293° |